Time;durP1;ratioP1;P1;durP2;ratioP2;P2;SDS_P1;SDS_P2;PMS_P1;PMS_P2;Temp;Humidity;BMP_temperature;BMP_pressure;BME280_temperature;BME280_humidity;BME280_pressure;Samples;Min_cycle;Max_cycle;Signal;HPM_P1;HPM_P2
2021/01/25 00:00:53;;;;;;;10.43;8.60;;;;;;;3.80;72.36;99512.16;5121312;28;20205;-74
2021/01/25 00:03:19;;;;;;;9.77;8.63;;;;;;;4.51;70.80;99503.84;5120885;28;20212;-72
2021/01/25 00:05:44;;;;;;;10.63;8.93;;;;;;;3.87;71.70;99514.03;5120829;27;20254;-73
2021/01/25 00:08:10;;;;;;;9.87;8.40;;;;;;;4.13;71.63;99516.16;5121250;28;20167;-71
2021/01/25 00:10:35;;;;;;;10.30;9.30;;;;;;;4.69;68.92;99510.09;5120631;28;20540;-72
2021/01/25 00:13:00;;;;;;;9.83;8.80;;;;;;;3.95;71.31;99516.72;5120016;28;20431;-73
2021/01/25 00:15:26;;;;;;;11.60;8.60;;;;;;;4.22;70.43;99512.03;5114019;28;20218;-75
2021/01/25 00:17:51;;;;;;;9.60;8.60;;;;;;;3.65;72.90;99513.66;5103105;28;20543;-72
2021/01/25 00:20:17;;;;;;;10.07;8.53;;;;;;;4.00;71.37;99517.66;5120036;28;20543;-73
2021/01/25 00:22:42;;;;;;;8.60;7.80;;;;;;;3.89;71.83;99517.50;5116133;28;20171;-72
2021/01/25 00:25:08;;;;;;;8.97;8.07;;;;;;;3.73;72.20;99515.50;5100725;28;20203;-73
2021/01/25 00:27:34;;;;;;;10.37;7.70;;;;;;;3.62;72.83;99523.03;5101369;28;20172;-73
2021/01/25 00:29:59;;;;;;;9.70;8.30;;;;;;;3.66;72.03;99525.69;5099956;28;20415;-72
2021/01/25 00:32:24;;;;;;;8.20;7.17;;;;;;;3.55;72.32;99529.78;5113981;28;20182;-70
2021/01/25 00:34:50;;;;;;;9.70;8.50;;;;;;;3.51;73.00;99534.00;5120615;28;20167;-69
2021/01/25 00:37:15;;;;;;;8.67;7.70;;;;;;;3.43;73.46;99529.56;5120319;28;20187;-71
2021/01/25 00:39:41;;;;;;;8.90;7.33;;;;;;;3.80;71.09;99536.25;5120153;28;20250;-72
2021/01/25 00:42:06;;;;;;;8.33;7.40;;;;;;;4.28;70.40;99531.88;5120688;28;20167;-69
2021/01/25 00:44:31;;;;;;;8.67;7.80;;;;;;;4.26;70.33;99527.53;5119327;28;20201;-67
2021/01/25 00:46:57;;;;;;;9.40;7.37;;;;;;;4.27;69.56;99530.13;5120030;27;20168;-69
2021/01/25 00:49:22;;;;;;;10.00;8.30;;;;;;;4.23;70.12;99525.78;5107337;28;20215;-71
2021/01/25 00:51:47;;;;;;;8.63;7.73;;;;;;;3.95;71.01;99530.50;5099511;28;20172;-70
2021/01/25 00:54:13;;;;;;;9.03;8.00;;;;;;;4.00;70.15;99533.13;5099504;28;20521;-71
2021/01/25 00:56:38;;;;;;;8.80;7.10;;;;;;;3.91;70.90;99530.41;5099319;28;20496;-71
2021/01/25 00:59:03;;;;;;;8.20;7.40;;;;;;;4.19;69.80;99530.03;5099774;28;20172;-75
2021/01/25 01:01:29;;;;;;;7.90;7.10;;;;;;;3.88;71.00;99534.69;5099432;28;20168;-71
2021/01/25 01:03:54;;;;;;;8.07;7.33;;;;;;;3.63;71.08;99530.78;5099781;28;20191;-70
2021/01/25 01:06:20;;;;;;;12.00;8.60;;;;;;;3.80;70.40;99536.25;5099363;28;20164;-71
2021/01/25 01:08:45;;;;;;;11.93;8.20;;;;;;;3.90;71.04;99542.44;5119221;28;20176;-71
2021/01/25 01:11:11;;;;;;;12.80;10.27;;;;;;;3.39;72.40;99544.09;5119910;28;20528;-71
2021/01/25 01:13:36;;;;;;;15.30;11.23;;;;;;;4.10;69.80;99537.63;5119372;28;20431;-72
2021/01/25 01:16:02;;;;;;;15.77;12.63;;;;;;;3.81;71.69;99539.69;5119585;28;20179;-71
2021/01/25 01:18:27;;;;;;;21.93;17.50;;;;;;;4.08;70.04;99546.19;5119986;28;20174;-72
2021/01/25 01:20:52;;;;;;;23.37;18.30;;;;;;;4.32;69.29;99545.69;5119259;28;20175;-69
2021/01/25 01:23:18;;;;;;;24.30;20.20;;;;;;;3.91;71.14;99541.59;5119200;28;20460;-70
2021/01/25 01:25:43;;;;;;;22.63;18.60;;;;;;;3.75;71.16;99549.88;5120004;28;20171;-70
2021/01/25 01:28:09;;;;;;;24.23;18.13;;;;;;;3.78;71.09;99549.97;5119485;28;20273;-70
2021/01/25 01:30:34;;;;;;;19.03;16.57;;;;;;;3.47;71.79;99557.13;5119142;28;20172;-70
2021/01/25 01:32:59;;;;;;;21.03;16.50;;;;;;;3.43;72.25;99550.19;5119789;28;20501;-71
2021/01/25 01:35:25;;;;;;;18.97;16.13;;;;;;;3.97;70.79;99548.56;5119183;28;20203;-74
2021/01/25 01:37:50;;;;;;;21.23;15.80;;;;;;;3.95;70.62;99542.50;5119423;28;20248;-73
2021/01/25 01:40:15;;;;;;;17.97;12.90;;;;;;;7.55;66.01;99533.09;5101904;28;20291;-62
2021/01/25 01:42:41;;;;;;;16.73;11.67;;;;;;;7.13;61.40;99532.09;5098784;28;20168;-73
2021/01/25 01:45:08;;;;;;;12.93;10.40;;;;;;;5.62;64.02;99537.91;5099058;28;20195;-73
2021/01/25 01:47:34;;;;;;;11.50;10.30;;;;;;;4.34;68.29;99542.31;5099373;28;20195;-72
2021/01/25 01:50:00;;;;;;;10.50;9.40;;;;;;;4.33;68.41;99540.56;5098874;28;20421;-72
2021/01/25 01:52:26;;;;;;;27.47;17.43;;;;;;;4.71;67.06;99544.56;5098573;28;20417;-72
2021/01/25 01:54:55;;;;;;;11.37;8.93;;;;;;;4.07;69.15;99552.16;5099392;28;20764;-72
2021/01/25 01:57:20;;;;;;;13.70;10.33;;;;;;;4.10;68.63;99549.63;5098891;28;20168;-72
2021/01/25 01:59:46;;;;;;;11.70;9.10;;;;;;;4.09;69.82;99543.63;5097924;28;20434;-72
2021/01/25 02:02:11;;;;;;;9.57;8.57;;;;;;;3.67;71.12;99555.78;5099148;28;20225;-73
2021/01/25 02:04:37;;;;;;;10.40;8.73;;;;;;;3.67;71.21;99557.50;5098611;28;20207;-72
2021/01/25 02:07:05;;;;;;;10.00;9.00;;;;;;;3.81;70.49;99552.59;5097779;28;20168;-72
2021/01/25 02:09:32;;;;;;;10.60;8.53;;;;;;;3.83;70.42;99549.19;5098029;28;20402;-73
2021/01/25 02:11:58;;;;;;;10.03;9.03;;;;;;;4.01;69.81;99556.38;5098403;28;20410;-72
2021/01/25 02:14:24;;;;;;;9.07;8.20;;;;;;;3.61;71.04;99559.94;5098156;28;20504;-72
2021/01/25 02:16:49;;;;;;;10.10;9.10;;;;;;;3.57;70.97;99561.59;5098004;28;20180;-73
2021/01/25 02:19:42;;;;;;;11.97;9.03;;;;;;;3.88;71.02;99549.25;5097898;28;20438;-72
2021/01/25 02:22:29;;;;;;;12.40;8.83;;;;;;;3.88;69.95;99554.41;5088129;28;20188;-72
2021/01/25 02:25:36;;;;;;;10.83;9.00;;;;;;;3.81;69.89;99552.59;5098301;28;20465;-71
2021/01/25 02:28:02;;;;;;;12.47;9.80;;;;;;;3.95;69.98;99556.28;5097852;28;20505;-71
2021/01/25 02:30:27;;;;;;;12.13;9.70;;;;;;;3.65;70.77;99557.47;5098203;28;20432;-71
2021/01/25 02:32:53;;;;;;;10.60;9.57;;;;;;;4.00;70.45;99552.03;5098091;28;20225;-71
2021/01/25 02:35:18;;;;;;;10.07;9.07;;;;;;;3.79;70.95;99562.00;5098035;28;20171;-71
2021/01/25 02:37:46;;;;;;;9.80;8.80;;;;;;;4.11;70.91;99556.53;5098036;28;20180;-72
2021/01/25 02:40:12;;;;;;;13.77;9.77;;;;;;;3.96;70.49;99562.28;5097471;28;20251;-71
2021/01/25 02:42:39;;;;;;;10.67;9.57;;;;;;;4.10;70.37;99559.94;5097747;28;20683;-71
2021/01/25 02:45:05;;;;;;;13.07;9.70;;;;;;;3.88;71.02;99564.72;5097970;28;20466;-72
2021/01/25 02:47:31;;;;;;;11.53;9.77;;;;;;;3.51;71.95;99566.66;5097999;28;20427;-72
2021/01/25 02:49:56;;;;;;;10.83;9.73;;;;;;;3.33;73.08;99564.59;5097688;28;20219;-72
2021/01/25 02:52:21;;;;;;;10.40;9.20;;;;;;;3.31;73.18;99567.09;5097991;28;20506;-72
2021/01/25 02:58:09;;;;;;;12.83;10.07;;;;;;;3.54;71.65;99571.84;5098550;28;20237;-72
2021/01/25 03:00:34;;;;;;;12.17;9.77;;;;;;;3.70;71.77;99562.69;5097221;28;20497;-71
2021/01/25 03:03:01;;;;;;;13.67;11.27;;;;;;;3.60;71.03;99571.09;5097086;28;20202;-72
2021/01/25 03:05:28;;;;;;;18.20;11.00;;;;;;;3.44;71.35;99572.53;5097867;28;20172;-72
2021/01/25 03:07:53;;;;;;;15.97;12.77;;;;;;;3.28;72.55;99576.50;5097563;28;20410;-72
2021/01/25 03:10:19;;;;;;;12.37;11.10;;;;;;;3.63;71.49;99576.31;5097091;28;20479;-72
2021/01/25 03:12:44;;;;;;;12.97;11.23;;;;;;;3.24;72.46;99579.84;5097109;28;20176;-72
2021/01/25 03:15:11;;;;;;;14.30;12.70;;;;;;;3.60;71.44;99576.25;5097786;28;20277;-71
2021/01/25 03:17:37;;;;;;;17.03;13.00;;;;;;;3.65;71.32;99572.94;5097132;28;20255;-71
2021/01/25 03:20:02;;;;;;;16.67;13.37;;;;;;;3.56;71.69;99574.44;5100300;28;20426;-71
2021/01/25 03:22:28;;;;;;;14.33;12.93;;;;;;;3.73;70.70;99578.22;5101371;28;20450;-71
2021/01/25 03:24:53;;;;;;;15.33;13.50;;;;;;;3.63;71.98;99574.59;5101242;28;20223;-71
2021/01/25 03:27:18;;;;;;;17.07;14.30;;;;;;;3.61;71.70;99578.84;5101914;28;20211;-72
2021/01/25 03:29:43;;;;;;;18.40;16.40;;;;;;;3.62;71.31;99585.75;5101061;28;20176;-72
2021/01/25 03:32:09;;;;;;;18.50;16.60;;;;;;;3.53;71.51;99583.88;5101290;28;20598;-71
2021/01/25 03:34:34;;;;;;;20.03;16.60;;;;;;;3.47;70.98;99585.47;5101626;28;20248;-72
2021/01/25 03:37:00;;;;;;;20.07;17.10;;;;;;;3.46;72.10;99589.72;5101236;28;20221;-71
2021/01/25 03:39:26;;;;;;;17.93;16.00;;;;;;;3.62;71.77;99593.47;5101012;28;20172;-72
2021/01/25 03:41:51;;;;;;;21.23;17.50;;;;;;;3.27;72.65;99601.38;5101286;28;20413;-72
2021/01/25 03:44:16;;;;;;;21.60;18.43;;;;;;;3.44;71.88;99604.31;5100853;28;20212;-72
2021/01/25 03:46:45;;;;;;;21.30;18.10;;;;;;;3.50;71.54;99600.97;5100954;28;20180;-71
2021/01/25 03:49:12;;;;;;;21.73;18.17;;;;;;;3.77;70.50;99599.78;5100763;28;20526;-72
2021/01/25 03:51:38;;;;;;;20.90;18.63;;;;;;;3.44;71.38;99611.19;5100560;28;20437;-72
2021/01/25 03:54:03;;;;;;;24.40;19.90;;;;;;;3.00;72.83;99609.38;5100103;28;20823;-71
2021/01/25 03:56:28;;;;;;;21.23;17.20;;;;;;;3.26;71.93;99606.50;5101264;28;20175;-71
2021/01/25 03:58:54;;;;;;;20.80;17.90;;;;;;;2.98;73.38;99616.22;5100570;28;20168;-71
2021/01/25 04:01:19;;;;;;;22.50;19.37;;;;;;;3.15;72.27;99619.16;5100512;28;20563;-71
2021/01/25 04:03:44;;;;;;;23.93;18.97;;;;;;;3.23;72.34;99609.88;5100992;28;20195;-72
2021/01/25 04:06:10;;;;;;;24.77;20.50;;;;;;;3.36;71.34;99623.88;5100679;28;20172;-72
2021/01/25 04:08:35;;;;;;;23.60;18.97;;;;;;;3.06;73.17;99614.69;5100716;28;20187;-71
2021/01/25 04:11:01;;;;;;;24.50;20.40;;;;;;;3.41;71.06;99609.41;5100660;28;20165;-72
2021/01/25 04:13:26;;;;;;;24.27;20.77;;;;;;;3.54;71.50;99610.50;5100387;28;20168;-72
2021/01/25 04:15:51;;;;;;;24.73;20.10;;;;;;;3.51;70.61;99613.03;5100374;28;20267;-73
2021/01/25 04:18:16;;;;;;;24.83;20.77;;;;;;;2.98;73.87;99626.53;5101495;28;20172;-72
2021/01/25 04:20:42;;;;;;;24.87;22.03;;;;;;;3.14;73.04;99622.53;5100611;28;20300;-71
2021/01/25 04:23:07;;;;;;;28.20;22.30;;;;;;;3.27;72.10;99624.56;5100198;28;20196;-71
2021/01/25 04:25:33;;;;;;;27.67;21.10;;;;;;;3.11;73.00;99628.53;5100845;28;20251;-72
2021/01/25 04:27:58;;;;;;;27.53;20.40;;;;;;;3.00;72.98;99635.13;5100292;28;20219;-71
2021/01/25 04:30:24;;;;;;;24.80;21.90;;;;;;;3.22;72.34;99631.34;5098843;28;20421;-71
2021/01/25 04:32:50;;;;;;;24.93;20.43;;;;;;;2.98;73.28;99632.53;5100369;28;20171;-72
2021/01/25 04:35:16;;;;;;;21.90;19.60;;;;;;;3.39;71.91;99633.41;5100025;28;20433;-71
2021/01/25 04:37:42;;;;;;;24.63;20.30;;;;;;;3.27;72.21;99640.00;5099997;28;20161;-71
2021/01/25 04:40:09;;;;;;;28.67;20.50;;;;;;;3.42;71.51;99634.31;5100253;28;20410;-71
2021/01/25 04:42:36;;;;;;;27.43;21.87;;;;;;;3.80;70.19;99638.50;5099812;28;20510;-71
2021/01/25 04:45:03;;;;;;;30.67;23.20;;;;;;;3.43;71.34;99635.19;5099774;28;20458;-72
2021/01/25 04:47:29;;;;;;;29.73;22.70;;;;;;;3.91;69.76;99633.53;5100109;28;20403;-71
2021/01/25 04:49:54;;;;;;;29.60;21.40;;;;;;;4.01;69.64;99636.31;5098932;28;20433;-72
2021/01/25 04:52:20;;;;;;;25.90;21.20;;;;;;;4.01;69.70;99633.75;5099691;28;20171;-72
2021/01/25 04:54:48;;;;;;;26.43;21.27;;;;;;;3.69;70.69;99640.84;5100088;28;20292;-72
2021/01/25 04:57:15;;;;;;;26.50;20.93;;;;;;;3.45;72.15;99636.06;5099551;28;20632;-71
2021/01/25 04:59:42;;;;;;;26.53;20.90;;;;;;;3.55;70.42;99635.44;5099282;28;20406;-71
2021/01/25 05:02:07;;;;;;;24.60;19.57;;;;;;;3.59;71.43;99639.81;5099321;28;20615;-71
2021/01/25 05:04:33;;;;;;;27.17;20.20;;;;;;;3.27;71.56;99647.72;5098661;28;20569;-71
2021/01/25 05:06:58;;;;;;;23.07;19.97;;;;;;;3.34;72.12;99641.00;5099390;28;20173;-71
2021/01/25 05:09:23;;;;;;;27.80;19.60;;;;;;;3.41;72.24;99644.59;5099853;28;20167;-71
2021/01/25 05:11:59;;;;;;;25.20;19.27;;;;;;;3.91;70.29;99642.16;5099129;28;20286;-72
2021/01/25 05:14:25;;;;;;;28.20;20.63;;;;;;;3.98;70.26;99641.44;5099051;28;20492;-71
2021/01/25 05:16:51;;;;;;;25.37;19.90;;;;;;;3.85;69.59;99640.31;5099180;28;20418;-71
2021/01/25 05:19:16;;;;;;;23.83;19.67;;;;;;;4.11;68.95;99644.22;5098511;28;20263;-71
2021/01/25 05:21:43;;;;;;;23.17;19.60;;;;;;;3.70;70.16;99648.63;5099418;28;20176;-71
2021/01/25 05:24:13;;;;;;;21.07;17.90;;;;;;;3.28;72.28;99656.34;5098906;28;20328;-71
2021/01/25 05:26:57;;;;;;;27.00;19.97;;;;;;;3.30;71.80;99652.97;5099086;28;20917;-71
2021/01/25 05:29:27;;;;;;;21.73;18.13;;;;;;;2.96;72.78;99657.34;5098430;28;20447;-70
2021/01/25 05:31:54;;;;;;;21.80;17.17;;;;;;;3.47;71.33;99652.44;5098201;28;20414;-70
2021/01/25 05:34:20;;;;;;;24.57;18.70;;;;;;;3.63;71.08;99649.34;5098929;28;20428;-71
2021/01/25 05:36:46;;;;;;;24.87;19.10;;;;;;;3.93;70.08;99650.78;5098782;28;20422;-71
2021/01/25 05:39:14;;;;;;;21.57;17.80;;;;;;;3.61;71.66;99652.72;5099444;28;20768;-72
2021/01/25 05:41:50;;;;;;;21.90;18.23;;;;;;;3.22;71.73;99654.53;5098220;28;20442;-70
2021/01/25 05:44:16;;;;;;;27.93;19.53;;;;;;;3.54;72.10;99646.56;5098764;28;20517;-72
2021/01/25 05:46:41;;;;;;;25.07;18.83;;;;;;;2.95;72.80;99652.16;5098723;28;20494;-71
2021/01/25 05:49:06;;;;;;;28.40;21.17;;;;;;;3.19;72.74;99654.44;5098738;28;20556;-71
2021/01/25 05:51:32;;;;;;;26.90;20.60;;;;;;;3.39;72.26;99651.44;5098841;28;20495;-72
2021/01/25 05:54:01;;;;;;;25.30;18.83;;;;;;;3.11;73.92;99655.97;5098661;28;20188;-71
2021/01/25 05:56:27;;;;;;;29.00;20.80;;;;;;;3.58;72.19;99642.38;5098519;28;20491;-71
2021/01/25 05:58:52;;;;;;;28.13;20.93;;;;;;;3.67;71.33;99651.16;5099061;28;20398;-71
2021/01/25 06:01:21;;;;;;;26.20;20.20;;;;;;;3.93;70.23;99650.78;5098222;28;20172;-71
2021/01/25 06:03:46;;;;;;;28.50;19.70;;;;;;;3.56;71.05;99651.75;5098340;28;20599;-72
2021/01/25 06:06:17;;;;;;;27.03;19.27;;;;;;;3.75;70.24;99655.56;5098958;28;20398;-71
2021/01/25 06:08:50;;;;;;;24.30;19.30;;;;;;;3.81;70.14;99653.13;5098281;28;20196;-71
2021/01/25 06:11:31;;;;;;;23.03;18.17;;;;;;;3.71;70.15;99659.81;5098091;28;20672;-71
2021/01/25 06:14:00;;;;;;;20.93;18.70;;;;;;;3.83;70.04;99661.75;5097603;28;20466;-71
2021/01/25 06:16:26;;;;;;;26.20;19.43;;;;;;;3.33;72.75;99667.63;5098384;28;20505;-71
2021/01/25 06:19:00;;;;;;;25.50;19.97;;;;;;;3.18;72.56;99671.59;5098268;28;20457;-71
2021/01/25 06:21:29;;;;;;;24.37;18.83;;;;;;;3.00;73.28;99673.75;5098164;28;20587;-72
2021/01/25 06:23:55;;;;;;;26.80;18.60;;;;;;;3.39;72.05;99680.63;5097478;28;20466;-72
2021/01/25 06:26:23;;;;;;;24.93;19.10;;;;;;;3.40;71.12;99678.91;5098390;28;20433;-70
2021/01/25 06:28:49;;;;;;;23.90;19.50;;;;;;;3.16;73.01;99685.28;5098780;28;20179;-71
2021/01/25 06:31:22;;;;;;;27.37;19.40;;;;;;;3.30;72.38;99694.19;5097201;28;20677;-72
2021/01/25 06:33:49;;;;;;;25.70;20.13;;;;;;;3.71;70.79;99691.59;5097509;28;20172;-72
2021/01/25 06:36:18;;;;;;;28.03;22.50;;;;;;;3.22;72.55;99700.88;5098533;28;20407;-72
2021/01/25 06:38:47;;;;;;;29.40;22.00;;;;;;;3.09;73.09;99706.59;5098064;28;20475;-72
2021/01/25 06:41:13;;;;;;;26.73;20.53;;;;;;;2.81;74.53;99703.34;5097790;28;20422;-72
2021/01/25 06:43:42;;;;;;;25.23;20.80;;;;;;;3.06;73.71;99712.53;5098177;28;20506;-72
2021/01/25 06:46:08;;;;;;;26.47;21.40;;;;;;;3.16;72.80;99714.47;5098155;28;20411;-71
2021/01/25 06:48:35;;;;;;;23.57;19.20;;;;;;;3.33;72.40;99716.56;5097888;28;20410;-74
2021/01/25 06:51:01;;;;;;;26.40;20.03;;;;;;;3.02;74.13;99718.44;5097724;28;20164;-72
2021/01/25 06:53:28;;;;;;;31.83;20.57;;;;;;;2.83;74.24;99715.41;5097204;28;20464;-72
2021/01/25 06:56:00;;;;;;;26.37;20.10;;;;;;;3.24;72.28;99727.53;5101623;28;20417;-72
2021/01/25 06:58:30;;;;;;;23.60;18.77;;;;;;;3.40;72.14;99727.84;5102430;28;20662;-72
2021/01/25 07:00:55;;;;;;;28.50;21.27;;;;;;;3.05;73.30;99735.66;5101642;28;20410;-72
2021/01/25 07:03:21;;;;;;;26.73;20.80;;;;;;;3.28;72.64;99734.47;5101776;28;20480;-71
2021/01/25 07:05:49;;;;;;;27.47;20.27;;;;;;;3.16;72.68;99747.09;5102228;28;20493;-71
2021/01/25 07:08:23;;;;;;;29.10;21.30;;;;;;;3.17;73.93;99738.53;5101797;28;20420;-71
2021/01/25 07:10:49;;;;;;;31.87;22.60;;;;;;;3.45;71.88;99734.88;5100670;28;20441;-72
2021/01/25 07:13:14;;;;;;;27.80;20.70;;;;;;;2.76;73.69;99753.81;5101595;28;20482;-72
2021/01/25 07:15:40;;;;;;;31.90;23.03;;;;;;;3.18;71.93;99754.00;5101413;28;20568;-71
2021/01/25 07:18:06;;;;;;;29.00;21.20;;;;;;;3.10;75.34;99752.06;5102037;28;20176;-72
2021/01/25 07:20:31;;;;;;;34.07;22.60;;;;;;;2.67;74.59;99750.19;5100593;28;20176;-71
2021/01/25 07:22:58;;;;;;;27.60;21.10;;;;;;;2.82;74.96;99754.84;5100608;28;20559;-71
2021/01/25 07:25:27;;;;;;;29.47;22.00;;;;;;;2.84;73.70;99755.78;5100913;28;20180;-72
2021/01/25 07:28:01;;;;;;;31.77;22.23;;;;;;;3.09;73.06;99758.09;5101324;28;20426;-71
2021/01/25 07:30:30;;;;;;;32.97;22.10;;;;;;;2.85;74.07;99757.50;5100491;28;20411;-71
2021/01/25 07:32:56;;;;;;;29.77;22.00;;;;;;;3.11;72.75;99761.53;5101066;28;20512;-70
2021/01/25 07:35:27;;;;;;;34.73;23.30;;;;;;;2.96;74.50;99764.63;5101220;28;20406;-71
2021/01/25 07:37:52;;;;;;;34.73;23.93;;;;;;;2.88;73.99;99766.13;5101184;28;20416;-71
2021/01/25 07:40:18;;;;;;;33.67;23.33;;;;;;;3.04;72.20;99763.09;5101034;28;20411;-71
2021/01/25 07:42:44;;;;;;;36.73;24.03;;;;;;;2.88;73.40;99772.16;5101214;28;20164;-71
2021/01/25 07:45:10;;;;;;;35.67;24.30;;;;;;;3.02;73.28;99775.94;5100247;28;20480;-71
2021/01/25 07:47:35;;;;;;;37.57;25.10;;;;;;;3.26;72.32;99777.38;5100532;28;20183;-71
2021/01/25 07:50:08;;;;;;;44.47;25.83;;;;;;;3.11;72.38;99775.31;5101576;28;20168;-70
2021/01/25 07:52:33;;;;;;;40.83;26.60;;;;;;;3.13;72.50;99781.34;5101289;28;20442;-71
2021/01/25 07:55:10;;;;;;;46.70;27.40;;;;;;;2.79;73.63;99787.38;5100740;28;20465;-71
2021/01/25 07:57:35;;;;;;;36.10;23.20;;;;;;;2.40;76.15;99791.50;5100633;28;20172;-72
2021/01/25 08:00:00;;;;;;;41.93;24.13;;;;;;;2.84;73.50;99796.06;5100482;28;20531;-71
2021/01/25 08:02:26;;;;;;;37.40;23.97;;;;;;;2.82;74.24;99798.59;5101148;28;20206;-71
2021/01/25 08:04:52;;;;;;;36.53;23.57;;;;;;;2.95;73.52;99801.50;5100194;28;20601;-72
2021/01/25 08:07:18;;;;;;;36.07;23.63;;;;;;;2.59;74.68;99805.72;5100085;28;20176;-71
2021/01/25 08:09:43;;;;;;;32.77;23.37;;;;;;;2.53;75.26;99811.59;5100205;28;20259;-72
2021/01/25 08:12:10;;;;;;;36.83;24.47;;;;;;;2.79;74.20;99802.81;5100551;28;20414;-72
2021/01/25 08:14:44;;;;;;;40.03;24.10;;;;;;;2.50;74.81;99813.19;5099534;28;20541;-72
2021/01/25 08:17:13;;;;;;;36.73;22.50;;;;;;;2.91;73.15;99809.97;5099836;28;20674;-71
2021/01/25 08:19:44;;;;;;;40.83;23.10;;;;;;;2.99;73.64;99811.03;5099370;28;20415;-71
2021/01/25 08:22:26;;;;;;;28.13;20.37;;;;;;;3.11;72.81;99811.38;5099583;28;20442;-72
2021/01/25 08:25:01;;;;;;;36.33;22.07;;;;;;;2.75;74.15;99816.41;5099386;28;20522;-71
2021/01/25 08:27:27;;;;;;;30.47;21.77;;;;;;;2.82;73.29;99819.19;5100148;28;20412;-72
2021/01/25 08:30:02;;;;;;;42.13;22.27;;;;;;;3.24;71.45;99822.81;5099289;28;20414;-72
2021/01/25 08:32:37;;;;;;;36.73;21.33;;;;;;;3.47;70.96;99827.66;5099263;28;20410;-71
2021/01/25 08:35:05;;;;;;;35.00;22.10;;;;;;;3.35;71.41;99830.81;5099863;28;20418;-72
2021/01/25 08:37:32;;;;;;;33.27;21.20;;;;;;;3.44;70.27;99835.34;5099734;28;20445;-71
2021/01/25 08:39:58;;;;;;;33.90;22.73;;;;;;;3.07;71.57;99834.41;5099681;28;20433;-71
2021/01/25 08:42:32;;;;;;;27.27;19.83;;;;;;;3.04;71.98;99840.34;5099926;28;20422;-71
2021/01/25 08:45:08;;;;;;;35.70;21.67;;;;;;;2.88;73.04;99844.22;5098998;28;20489;-72
2021/01/25 08:47:33;;;;;;;33.80;21.67;;;;;;;2.93;74.34;99845.22;5099522;28;20418;-72
2021/01/25 08:49:59;;;;;;;37.50;21.37;;;;;;;3.03;72.31;99844.63;5099484;28;20487;-73
2021/01/25 08:52:30;;;;;;;36.87;21.47;;;;;;;3.24;72.42;99853.72;5099565;28;20183;-71
2021/01/25 08:55:24;;;;;;;33.43;20.57;;;;;;;2.98;72.76;99863.38;5099913;28;20296;-70
2021/01/25 08:57:50;;;;;;;32.07;20.63;;;;;;;2.90;73.49;99863.16;5098539;28;20415;-72
2021/01/25 09:00:34;;;;;;;29.83;19.47;;;;;;;2.89;71.84;99861.41;5098644;28;20687;-70
2021/01/25 09:03:03;;;;;;;30.73;19.40;;;;;;;3.18;73.88;99857.03;5099219;28;20176;-72
2021/01/25 09:05:29;;;;;;;37.20;21.43;;;;;;;2.93;72.46;99862.38;5099356;28;20423;-71
2021/01/25 09:07:55;;;;;;;32.10;19.80;;;;;;;3.10;71.99;99867.94;5099151;28;20464;-71
2021/01/25 09:10:20;;;;;;;35.37;19.70;;;;;;;2.90;73.30;99870.91;5098926;28;20409;-71
2021/01/25 09:12:45;;;;;;;28.90;19.77;;;;;;;2.91;72.48;99870.06;5099703;28;20183;-72
2021/01/25 09:15:12;;;;;;;33.07;20.93;;;;;;;2.81;72.94;99862.91;5099172;28;20235;-71
2021/01/25 09:17:37;;;;;;;40.53;22.50;;;;;;;2.72;73.17;99872.97;5098521;28;20172;-72
2021/01/25 09:20:04;;;;;;;39.60;23.27;;;;;;;2.87;72.78;99870.81;5099146;28;20416;-72
2021/01/25 09:22:30;;;;;;;36.23;21.97;;;;;;;2.82;72.71;99877.53;5098956;28;20553;-72
2021/01/25 09:24:56;;;;;;;34.33;21.07;;;;;;;2.97;73.75;99880.50;5098891;28;20457;-72
2021/01/25 09:27:21;;;;;;;35.50;21.87;;;;;;;3.01;73.40;99878.91;5099548;28;20420;-73
2021/01/25 09:29:46;;;;;;;35.27;22.13;;;;;;;3.15;72.33;99882.72;5098489;28;20187;-72
2021/01/25 09:32:12;;;;;;;35.30;20.43;;;;;;;2.94;71.82;99885.59;5099056;28;20204;-71
2021/01/25 09:34:37;;;;;;;32.50;21.13;;;;;;;2.67;74.38;99890.88;5099796;28;20191;-71
2021/01/25 09:37:05;;;;;;;32.17;21.40;;;;;;;2.86;72.41;99893.09;5099059;28;20168;-72
2021/01/25 09:39:30;;;;;;;35.67;22.13;;;;;;;3.27;71.86;99891.56;5098494;28;20435;-71
2021/01/25 09:41:55;;;;;;;32.23;22.30;;;;;;;3.01;72.65;99897.78;5098914;28;20417;-71
2021/01/25 09:44:21;;;;;;;34.40;21.30;;;;;;;3.06;72.02;99899.59;5098238;28;20482;-71
2021/01/25 09:46:46;;;;;;;30.30;21.23;;;;;;;3.27;72.18;99894.16;5098626;28;20183;-72
2021/01/25 09:49:12;;;;;;;30.97;20.50;;;;;;;2.83;73.50;99900.75;5098759;28;20165;-72
2021/01/25 09:51:38;;;;;;;31.97;20.93;;;;;;;2.85;73.13;99906.78;5098334;28;20449;-72
2021/01/25 09:54:04;;;;;;;33.93;21.27;;;;;;;2.94;73.13;99911.34;5098350;28;20191;-72
2021/01/25 09:56:29;;;;;;;36.23;21.17;;;;;;;2.76;73.06;99916.88;5098623;28;20429;-72
2021/01/25 09:58:55;;;;;;;35.43;21.20;;;;;;;3.34;72.89;99911.50;5098377;28;20428;-72
2021/01/25 10:01:21;;;;;;;29.70;22.23;;;;;;;3.09;72.52;99915.16;5098265;28;20182;-73
2021/01/25 10:03:47;;;;;;;35.17;20.70;;;;;;;2.76;72.76;99922.00;5098105;28;20204;-71
2021/01/25 10:06:12;;;;;;;32.37;21.83;;;;;;;3.17;71.37;99926.53;5098436;28;20685;-71
2021/01/25 10:08:37;;;;;;;32.00;21.30;;;;;;;3.31;70.23;99932.91;5098416;28;20200;-72
2021/01/25 10:11:04;;;;;;;33.23;21.30;;;;;;;3.03;71.71;99926.16;5098733;28;20195;-72
2021/01/25 10:13:30;;;;;;;30.67;21.10;;;;;;;2.99;72.77;99932.94;5098047;28;20164;-73
2021/01/25 10:15:55;;;;;;;30.90;22.20;;;;;;;3.35;70.11;99939.88;5098245;28;20765;-71
2021/01/25 10:18:20;;;;;;;32.13;23.00;;;;;;;3.30;70.76;99938.03;5098567;28;20533;-71
2021/01/25 10:20:46;;;;;;;31.90;20.80;;;;;;;2.53;73.10;99941.94;5098119;28;20184;-73
2021/01/25 10:23:11;;;;;;;29.83;20.60;;;;;;;3.36;70.88;99935.63;5098293;28;20560;-71
2021/01/25 10:25:36;;;;;;;34.27;21.40;;;;;;;3.65;69.72;99931.19;5098885;28;20174;-70
2021/01/25 10:28:02;;;;;;;35.37;22.70;;;;;;;4.05;67.46;99934.69;5099544;28;20172;-72
2021/01/25 10:30:27;;;;;;;29.83;21.33;;;;;;;4.00;68.02;99940.59;5102364;28;20171;-71
2021/01/25 10:32:53;;;;;;;25.47;19.13;;;;;;;3.63;69.37;99948.31;5102857;28;20168;-72
2021/01/25 10:35:19;;;;;;;25.30;20.27;;;;;;;3.82;68.80;99943.63;5102281;28;20597;-71
2021/01/25 10:37:44;;;;;;;24.83;20.57;;;;;;;3.54;69.33;99945.50;5102449;28;20168;-71
2021/01/25 10:40:11;;;;;;;26.97;19.90;;;;;;;3.90;67.60;99946.38;5102457;28;20188;-71
2021/01/25 10:42:36;;;;;;;28.10;21.47;;;;;;;3.58;68.64;99955.06;5108156;28;20187;-71
2021/01/25 10:45:02;;;;;;;29.80;20.23;;;;;;;3.27;69.76;99964.56;5122221;28;20464;-69
2021/01/25 10:47:28;;;;;;;28.40;19.53;;;;;;;3.03;70.86;99959.63;5122665;28;20176;-71
2021/01/25 10:49:53;;;;;;;31.37;21.70;;;;;;;3.53;68.79;99964.38;5122208;28;20425;-71
2021/01/25 10:52:18;;;;;;;29.03;21.17;;;;;;;3.96;68.43;99965.44;5122296;28;20183;-71
2021/01/25 10:54:44;;;;;;;25.90;19.60;;;;;;;3.64;69.67;99967.22;5122515;27;20183;-71
2021/01/25 10:57:10;;;;;;;25.10;18.67;;;;;;;3.70;69.07;99965.66;5122207;28;20584;-71
2021/01/25 10:59:35;;;;;;;30.00;20.10;;;;;;;3.50;69.81;99969.47;5121994;28;20451;-71
2021/01/25 11:02:03;;;;;;;30.03;20.43;;;;;;;3.56;69.96;99974.78;5122375;28;20199;-71
2021/01/25 11:04:28;;;;;;;27.23;20.10;;;;;;;3.89;68.17;99968.72;5121330;28;20459;-71
2021/01/25 11:06:54;;;;;;;25.57;19.17;;;;;;;3.58;69.17;99973.09;5121169;28;20445;-71
2021/01/25 11:09:19;;;;;;;28.40;18.87;;;;;;;3.76;68.69;99977.88;5122294;28;20168;-71
2021/01/25 11:11:44;;;;;;;24.83;19.00;;;;;;;3.06;71.63;99979.44;5121853;28;20175;-71
2021/01/25 11:14:10;;;;;;;26.27;18.93;;;;;;;3.44;70.21;99979.63;5121635;28;20223;-72
2021/01/25 11:16:35;;;;;;;26.93;19.33;;;;;;;3.65;69.09;99985.34;5121393;28;20186;-71
2021/01/25 11:19:00;;;;;;;25.90;20.60;;;;;;;3.54;69.34;99982.47;5121700;28;20239;-72
2021/01/25 11:21:26;;;;;;;25.10;19.33;;;;;;;3.37;70.27;99987.19;5121539;28;20555;-70
2021/01/25 11:23:51;;;;;;;24.63;18.90;;;;;;;3.61;69.24;99991.22;5122156;28;20188;-72
2021/01/25 11:26:18;;;;;;;24.80;17.77;;;;;;;3.39;69.90;99986.34;5121779;28;20190;-71
2021/01/25 11:28:43;;;;;;;19.93;16.57;;;;;;;3.60;69.47;99984.34;5121614;28;20400;-71